Time;durP1;ratioP1;P1;durP2;ratioP2;P2;SDS_P1;SDS_P2;PMS_P1;PMS_P2;Temp;Humidity;BMP_temperature;BMP_pressure;BME280_temperature;BME280_humidity;BME280_pressure;Samples;Min_cycle;Max_cycle;Signal;HPM_P1;HPM_P2
2024/02/01 00:02:10;;;;;;;0.20;0.10;;;;;;;6.60;97.00;101458.78;5055435;28;20548;-52
2024/02/01 00:04:36;;;;;;;0.30;0.20;;;;;;;6.69;95.74;101461.47;5055415;28;20451;-52
2024/02/01 00:07:03;;;;;;;0.30;0.10;;;;;;;6.81;95.77;101464.19;5055174;28;20956;-52
2024/02/01 00:09:29;;;;;;;0.30;0.20;;;;;;;6.75;94.85;101458.00;5054888;28;20500;-53
2024/02/01 00:11:56;;;;;;;0.30;0.20;;;;;;;6.76;94.87;101463.28;5054956;28;20545;-53
2024/02/01 00:14:22;;;;;;;0.30;0.20;;;;;;;6.77;94.84;101466.81;5055188;28;20986;-54
2024/02/01 00:16:49;;;;;;;0.30;0.17;;;;;;;6.90;93.97;101460.72;5054929;28;20449;-54
2024/02/01 00:19:15;;;;;;;0.30;0.20;;;;;;;6.74;93.57;101464.16;5054784;28;20485;-51
2024/02/01 00:21:42;;;;;;;0.30;0.20;;;;;;;6.69;94.85;101477.31;5054640;28;20447;-53
2024/02/01 00:24:09;;;;;;;0.30;0.20;;;;;;;6.62;94.50;101464.09;5054383;28;20457;-52
2024/02/01 00:26:36;;;;;;;0.30;0.10;;;;;;;6.61;95.10;101464.97;5054494;28;20545;-53
2024/02/01 00:29:02;;;;;;;0.30;0.20;;;;;;;6.31;95.19;101455.94;5054981;28;20568;-53
2024/02/01 00:31:29;;;;;;;0.30;0.20;;;;;;;6.11;95.79;101455.78;5054849;28;20471;-53
2024/02/01 00:33:55;;;;;;;0.30;0.20;;;;;;;6.11;96.99;101453.13;5054387;28;20952;-52
2024/02/01 00:36:22;;;;;;;0.30;0.20;;;;;;;6.09;97.27;101439.03;5055198;28;20446;-53
2024/02/01 00:38:48;;;;;;;0.30;0.20;;;;;;;6.14;97.19;101441.72;5054766;28;20443;-53
2024/02/01 00:41:15;;;;;;;0.30;0.20;;;;;;;6.19;97.51;101448.81;5054331;28;20486;-52
2024/02/01 00:43:42;;;;;;;0.30;0.20;;;;;;;6.13;97.41;101446.09;5054747;28;20795;-53
2024/02/01 00:46:09;;;;;;;0.30;0.20;;;;;;;6.27;97.27;101442.69;5052370;28;20454;-54
2024/02/01 00:48:36;;;;;;;0.30;0.20;;;;;;;6.44;96.36;101430.50;5046728;28;20487;-52
2024/02/01 00:51:03;;;;;;;0.30;0.20;;;;;;;6.41;96.46;101431.34;5054055;28;20898;-54
2024/02/01 00:53:30;;;;;;;0.30;0.10;;;;;;;6.31;96.88;101440.09;5054308;28;20477;-54
2024/02/01 00:55:56;;;;;;;0.30;0.20;;;;;;;6.30;97.07;101432.16;5054315;28;20458;-53
2024/02/01 00:58:23;;;;;;;0.30;0.20;;;;;;;6.28;97.75;101428.63;5054430;28;20993;-53
2024/02/01 01:00:49;;;;;;;0.30;0.20;;;;;;;6.49;96.84;101423.50;5054744;28;20479;-53
2024/02/01 01:03:16;;;;;;;0.30;0.20;;;;;;;6.41;97.56;101428.72;5054068;28;20509;-54
2024/02/01 01:05:43;;;;;;;0.30;0.10;;;;;;;6.53;96.36;101425.28;5054582;28;20486;-53
2024/02/01 01:08:10;;;;;;;0.30;0.20;;;;;;;6.51;96.98;101419.97;5054474;28;20497;-54
2024/02/01 01:10:36;;;;;;;0.30;0.20;;;;;;;6.53;97.74;101420.88;5054522;28;20499;-54
2024/02/01 01:13:03;;;;;;;0.30;0.10;;;;;;;6.51;96.96;101412.06;5054119;28;20570;-54
2024/02/01 01:15:29;;;;;;;0.30;0.20;;;;;;;6.48;96.78;101416.44;5053938;28;20542;-54
2024/02/01 01:17:56;;;;;;;0.30;0.20;;;;;;;6.46;98.06;101413.81;5054062;28;20458;-53
2024/02/01 01:20:22;;;;;;;0.30;0.20;;;;;;;6.44;97.25;101409.34;5053652;28;20975;-54
2024/02/01 01:22:49;;;;;;;0.30;0.20;;;;;;;6.49;98.51;101405.88;5053822;28;20893;-53
2024/02/01 01:25:16;;;;;;;0.30;0.20;;;;;;;6.51;97.56;101404.13;5053877;28;20450;-53
2024/02/01 01:27:42;;;;;;;0.30;0.20;;;;;;;6.69;97.84;101399.81;5053808;28;20509;-54
2024/02/01 01:30:10;;;;;;;0.30;0.20;;;;;;;6.73;96.90;101402.50;5053022;28;20494;-54
2024/02/01 01:32:37;;;;;;;0.30;0.20;;;;;;;6.90;96.73;101401.69;5053760;28;20474;-53
2024/02/01 01:35:03;;;;;;;0.30;0.20;;;;;;;6.86;96.90;101402.56;5054341;28;20454;-54
2024/02/01 01:37:32;;;;;;;0.30;0.20;;;;;;;6.78;96.71;101391.94;5054138;28;20446;-53
2024/02/01 01:39:59;;;;;;;0.30;0.20;;;;;;;6.82;97.03;101397.25;5053597;28;20478;-52
2024/02/01 01:42:25;;;;;;;0.30;0.20;;;;;;;6.88;97.08;101400.81;5054371;28;20543;-52
2024/02/01 01:44:52;;;;;;;0.30;0.20;;;;;;;7.06;96.16;101390.31;5054210;28;20450;-53
2024/02/01 01:47:19;;;;;;;0.30;0.20;;;;;;;7.33;95.68;101393.03;5043218;28;20529;-53
2024/02/01 01:49:45;;;;;;;0.30;0.20;;;;;;;7.47;96.13;101392.19;5053554;28;20498;-53
2024/02/01 01:52:14;;;;;;;0.30;0.20;;;;;;;7.56;95.59;101393.09;5053523;28;20490;-53
2024/02/01 01:54:41;;;;;;;0.30;0.20;;;;;;;7.72;94.91;101386.03;5053533;28;20565;-54
2024/02/01 01:57:08;;;;;;;0.30;0.20;;;;;;;7.85;94.19;101384.28;5052994;28;20486;-54
2024/02/01 01:59:35;;;;;;;0.30;0.20;;;;;;;7.88;94.35;101395.75;5053824;28;20876;-53
2024/02/01 02:02:01;;;;;;;0.30;0.20;;;;;;;8.01;93.60;101397.50;5053320;28;20451;-53
2024/02/01 02:04:28;;;;;;;0.30;0.20;;;;;;;8.07;93.81;101393.97;5053429;28;20508;-53
2024/02/01 02:06:55;;;;;;;0.30;0.20;;;;;;;8.02;93.58;101390.44;5053415;28;20828;-53
2024/02/01 02:09:23;;;;;;;0.30;0.20;;;;;;;8.19;93.46;101382.50;5053221;28;20490;-54
2024/02/01 02:11:49;;;;;;;0.30;0.20;;;;;;;8.23;93.69;101371.91;5053179;28;21004;-53
2024/02/01 02:14:16;;;;;;;0.30;0.20;;;;;;;8.12;93.93;101383.41;5053827;28;20451;-52
2024/02/01 02:16:43;;;;;;;0.30;0.20;;;;;;;8.07;93.43;101388.66;5053012;28;20457;-53
2024/02/01 02:19:09;;;;;;;0.30;0.20;;;;;;;8.17;93.36;101381.63;5035675;28;20516;-53
2024/02/01 02:21:43;;;;;;;0.30;0.20;;;;;;;8.38;93.04;101397.53;5052956;28;20526;-54
2024/02/01 02:24:10;;;;;;;0.30;0.20;;;;;;;8.39;92.81;101388.69;5052469;28;20604;-54
2024/02/01 02:26:36;;;;;;;0.30;0.20;;;;;;;8.27;92.88;101389.56;5052528;28;20451;-53
2024/02/01 02:29:03;;;;;;;0.30;0.20;;;;;;;8.35;92.90;101381.59;5035045;28;20827;-54
2024/02/01 02:31:30;;;;;;;0.30;0.20;;;;;;;8.19;93.15;101391.31;5052911;28;20979;-53
2024/02/01 02:33:56;;;;;;;0.30;0.20;;;;;;;8.29;93.40;101386.91;5052699;28;20530;-53
2024/02/01 02:36:23;;;;;;;0.30;0.20;;;;;;;8.28;93.24;101387.78;5052781;28;20450;-53
2024/02/01 02:38:49;;;;;;;0.30;0.20;;;;;;;8.43;92.68;101389.56;5052734;28;20451;-54
2024/02/01 02:41:16;;;;;;;0.30;0.20;;;;;;;8.48;92.80;101387.75;5052114;28;20579;-53
2024/02/01 02:43:44;;;;;;;0.30;0.20;;;;;;;8.33;93.56;101380.69;5052816;28;20504;-53
2024/02/01 02:46:10;;;;;;;0.30;0.20;;;;;;;8.36;93.23;101378.09;5050496;28;20451;-55
2024/02/01 02:48:40;;;;;;;0.30;0.20;;;;;;;8.36;93.50;101379.84;5045040;28;20573;-53
2024/02/01 02:51:07;;;;;;;0.30;0.20;;;;;;;8.40;93.33;101376.31;5052725;28;20554;-51
2024/02/01 02:53:34;;;;;;;0.30;0.20;;;;;;;8.47;93.35;101389.53;5051117;28;20447;-51
2024/02/01 02:56:00;;;;;;;0.30;0.20;;;;;;;8.54;93.00;101387.78;5051163;28;20824;-51
2024/02/01 02:58:27;;;;;;;0.30;0.20;;;;;;;8.59;92.73;101385.97;5051062;28;20453;-51
2024/02/01 03:00:53;;;;;;;0.30;0.20;;;;;;;8.57;92.92;101377.16;5037794;28;21056;-51
2024/02/01 03:03:20;;;;;;;0.30;0.20;;;;;;;8.56;93.11;101384.22;5051105;28;20837;-49
2024/02/01 03:05:46;;;;;;;0.30;0.20;;;;;;;8.45;94.33;101388.66;5038426;28;20862;-49
2024/02/01 03:08:13;;;;;;;0.33;0.20;;;;;;;8.45;94.31;101388.66;5052291;28;20447;-51
2024/02/01 03:10:40;;;;;;;0.30;0.20;;;;;;;8.64;94.16;101391.28;5054870;28;20586;-50
2024/02/01 03:13:09;;;;;;;0.30;0.20;;;;;;;8.48;95.22;101382.47;5054771;28;20450;-50
2024/02/01 03:15:38;;;;;;;0.30;0.20;;;;;;;8.59;94.52;101370.06;5054909;28;20456;-50
2024/02/01 03:18:05;;;;;;;0.30;0.20;;;;;;;8.51;94.76;101364.81;5054892;28;20616;-50
2024/02/01 03:20:32;;;;;;;0.30;0.20;;;;;;;8.42;95.69;101367.47;5054764;28;20474;-49
2024/02/01 03:22:58;;;;;;;0.30;0.20;;;;;;;8.41;95.64;101378.97;5054555;28;20455;-49
2024/02/01 03:25:32;;;;;;;0.30;0.20;;;;;;;8.34;96.25;101377.19;5054603;28;20929;-50
2024/02/01 03:28:04;;;;;;;0.30;0.20;;;;;;;8.25;96.33;101363.97;5054460;28;20477;-51
2024/02/01 03:30:32;;;;;;;0.30;0.20;;;;;;;8.36;96.30;101362.22;5054803;28;20522;-50
2024/02/01 03:33:02;;;;;;;0.30;0.20;;;;;;;8.37;95.96;101368.38;5054507;28;20516;-50
2024/02/01 03:35:33;;;;;;;0.30;0.20;;;;;;;8.40;96.33;101363.06;5054491;28;20446;-50
2024/02/01 03:38:01;;;;;;;0.30;0.20;;;;;;;8.38;96.60;101364.84;5054087;28;20453;-50
2024/02/01 03:40:28;;;;;;;0.30;0.20;;;;;;;8.26;96.87;101360.41;5054070;28;20506;-50
2024/02/01 03:42:55;;;;;;;0.30;0.20;;;;;;;8.11;97.97;101341.91;5053948;28;20994;-50
2024/02/01 03:45:21;;;;;;;0.30;0.20;;;;;;;8.19;98.49;101350.72;5054424;28;20450;-50
2024/02/01 03:47:48;;;;;;;0.30;0.20;;;;;;;8.27;97.85;101341.00;5054083;28;20493;-52
2024/02/01 03:50:15;;;;;;;0.30;0.20;;;;;;;8.25;97.95;101343.66;5054080;28;20494;-51
2024/02/01 03:52:43;;;;;;;0.30;0.20;;;;;;;8.29;98.04;101341.88;5053675;28;20447;-51
2024/02/01 03:55:16;;;;;;;0.30;0.20;;;;;;;8.24;98.66;101333.06;5054436;28;20516;-51
2024/02/01 03:57:44;;;;;;;0.30;0.20;;;;;;;8.01;100.00;101330.44;5054156;28;20450;-52
2024/02/01 04:00:30;;;;;;;0.30;0.20;;;;;;;8.02;99.48;101327.78;5053951;28;20557;-51
2024/02/01 04:02:58;;;;;;;0.30;0.20;;;;;;;8.08;100.00;101329.53;5053927;28;20447;-50
2024/02/01 04:05:26;;;;;;;0.30;0.20;;;;;;;7.96;100.00;101325.16;5053726;28;20989;-51
2024/02/01 04:07:53;;;;;;;0.30;0.20;;;;;;;7.87;100.00;101334.88;5053821;28;20451;-50
2024/02/01 04:10:20;;;;;;;0.30;0.20;;;;;;;7.77;100.00;101333.97;5053450;28;21000;-52
2024/02/01 04:12:48;;;;;;;0.30;0.20;;;;;;;7.73;100.00;101332.22;5053439;28;20932;-50
2024/02/01 04:15:15;;;;;;;0.30;0.20;;;;;;;7.72;100.00;101334.00;5053487;28;20455;-51
2024/02/01 04:17:42;;;;;;;0.30;0.20;;;;;;;7.70;100.00;101326.94;5053559;28;20443;-51
2024/02/01 04:20:12;;;;;;;0.30;0.20;;;;;;;7.66;100.00;101333.09;5052658;28;20467;-51
2024/02/01 04:22:38;;;;;;;0.30;0.20;;;;;;;7.69;100.00;101334.00;5053443;28;20486;-51
2024/02/01 04:25:08;;;;;;;0.30;0.20;;;;;;;7.94;100.00;101334.84;5052437;28;20881;-50
2024/02/01 04:27:35;;;;;;;0.30;0.20;;;;;;;7.88;100.00;101344.56;5053590;28;20449;-50
2024/02/01 04:30:06;;;;;;;0.30;0.20;;;;;;;8.10;100.00;101338.38;5053046;28;20490;-50
2024/02/01 04:32:34;;;;;;;0.30;0.20;;;;;;;7.95;100.00;101355.19;5053319;28;21076;-50
2024/02/01 04:35:04;;;;;;;0.30;0.20;;;;;;;8.02;100.00;101350.75;5040074;28;20836;-50
2024/02/01 04:37:32;;;;;;;0.30;0.20;;;;;;;8.09;100.00;101344.56;5053105;28;20454;-50
2024/02/01 04:40:00;;;;;;;0.30;0.20;;;;;;;8.17;100.00;101352.47;5052903;28;20474;-51
2024/02/01 04:42:30;;;;;;;0.30;0.20;;;;;;;8.19;100.00;101348.94;5052934;28;20528;-50
2024/02/01 04:44:58;;;;;;;0.30;0.20;;;;;;;8.23;100.00;101352.50;5053108;28;20457;-50
2024/02/01 04:47:25;;;;;;;0.30;0.20;;;;;;;8.11;100.00;101363.09;5042616;28;20551;-50
2024/02/01 04:49:52;;;;;;;0.30;0.20;;;;;;;8.23;100.00;101363.09;5052934;28;20501;-51
2024/02/01 04:52:18;;;;;;;0.30;0.20;;;;;;;8.31;100.00;101364.81;5052918;28;20455;-51
2024/02/01 04:54:45;;;;;;;0.30;0.20;;;;;;;8.30;100.00;101371.00;5052710;28;20526;-50
2024/02/01 04:57:14;;;;;;;0.30;0.20;;;;;;;8.24;100.00;101364.84;5052522;28;20469;-51
2024/02/01 04:59:45;;;;;;;0.30;0.20;;;;;;;8.19;100.00;101362.19;5052889;28;20458;-50
2024/02/01 05:02:14;;;;;;;0.30;0.20;;;;;;;8.27;100.00;101362.19;5052814;28;20508;-50
2024/02/01 05:04:41;;;;;;;0.30;0.20;;;;;;;8.28;100.00;101370.13;5053165;28;20455;-50
2024/02/01 05:07:07;;;;;;;0.30;0.20;;;;;;;8.45;100.00;101377.19;5052679;28;20542;-50
2024/02/01 05:09:36;;;;;;;0.30;0.20;;;;;;;8.44;100.00;101372.78;5052160;28;21089;-50
2024/02/01 05:12:03;;;;;;;0.30;0.20;;;;;;;8.44;100.00;101372.78;5052683;28;20475;-50
2024/02/01 05:14:30;;;;;;;0.30;0.10;;;;;;;8.35;100.00;101370.13;5052619;28;20573;-50
2024/02/01 05:16:56;;;;;;;0.30;0.20;;;;;;;8.53;100.00;101371.00;5052326;28;20815;-50
2024/02/01 05:19:25;;;;;;;0.30;0.10;;;;;;;8.30;100.00;101370.13;5052169;28;20592;-51
2024/02/01 05:21:53;;;;;;;0.30;0.20;;;;;;;8.31;100.00;101369.22;5052085;28;20451;-51
2024/02/01 05:24:28;;;;;;;0.30;0.20;;;;;;;8.39;100.00;101367.50;5034170;28;20534;-51
2024/02/01 05:26:54;;;;;;;0.30;0.20;;;;;;;8.28;100.00;101363.94;5052414;28;20450;-51
2024/02/01 05:29:23;;;;;;;0.30;0.20;;;;;;;8.34;100.00;101369.25;5052081;28;20583;-51
2024/02/01 05:31:53;;;;;;;0.30;0.20;;;;;;;8.31;100.00;101358.63;5051494;28;20920;-51
2024/02/01 05:34:21;;;;;;;0.30;0.20;;;;;;;8.38;100.00;101357.78;5052073;28;20443;-50
2024/02/01 05:36:50;;;;;;;0.30;0.20;;;;;;;8.17;100.00;101342.78;5051976;28;20455;-51
2024/02/01 05:39:24;;;;;;;0.30;0.20;;;;;;;8.25;100.00;101348.94;5051850;28;20455;-51
2024/02/01 05:42:06;;;;;;;0.30;0.20;;;;;;;8.11;100.00;101341.91;5034219;28;20450;-51
2024/02/01 05:44:33;;;;;;;0.30;0.20;;;;;;;8.16;100.00;101340.13;5051918;28;21001;-51
2024/02/01 05:46:59;;;;;;;0.30;0.20;;;;;;;8.23;100.00;101340.13;5043374;28;20971;-51
2024/02/01 05:49:31;;;;;;;0.30;0.20;;;;;;;8.24;100.00;101341.00;5050332;28;20495;-51
2024/02/01 05:52:02;;;;;;;0.33;0.30;;;;;;;8.30;100.00;101333.03;5052037;28;20478;-50
2024/02/01 05:54:32;;;;;;;0.30;0.20;;;;;;;8.30;100.00;101333.91;5051522;28;20940;-51
2024/02/01 05:56:59;;;;;;;0.30;0.20;;;;;;;8.25;100.00;101340.13;5051642;28;20453;-51
2024/02/01 05:59:26;;;;;;;0.30;0.20;;;;;;;8.34;100.00;101342.75;5051554;28;20928;-51
2024/02/01 06:01:52;;;;;;;0.30;0.20;;;;;;;8.27;100.00;101341.00;5051697;28;20542;-51
2024/02/01 06:04:19;;;;;;;0.30;0.20;;;;;;;8.30;100.00;101336.56;5051951;28;20453;-51
2024/02/01 06:06:47;;;;;;;0.30;0.20;;;;;;;8.26;100.00;101336.59;5051610;28;20451;-52
2024/02/01 06:09:15;;;;;;;0.30;0.20;;;;;;;8.34;100.00;101340.13;5051348;28;20425;-51
2024/02/01 06:11:44;;;;;;;1.80;1.80;;;;;;;8.43;100.00;101339.22;5051586;28;20500;-51
2024/02/01 06:14:14;;;;;;;0.30;0.20;;;;;;;8.33;100.00;101344.50;5051985;28;20451;-51
2024/02/01 06:16:42;;;;;;;0.30;0.20;;;;;;;8.27;100.00;101341.88;5051386;28;20482;-50
2024/02/01 06:19:09;;;;;;;0.30;0.20;;;;;;;8.30;100.00;101338.34;5051612;28;20487;-52
2024/02/01 06:21:36;;;;;;;0.30;0.20;;;;;;;8.16;100.00;101341.00;5051533;28;20493;-50
2024/02/01 06:24:04;;;;;;;0.30;0.20;;;;;;;8.21;100.00;101341.88;5051482;28;20503;-50
2024/02/01 06:26:31;;;;;;;0.30;0.20;;;;;;;8.20;100.00;101340.09;5051147;28;21106;-50
2024/02/01 06:29:07;;;;;;;0.30;0.20;;;;;;;8.27;100.00;101341.00;5051125;28;21100;-50
2024/02/01 06:31:37;;;;;;;0.30;0.20;;;;;;;8.33;100.00;101356.84;5051256;28;20826;-51
2024/02/01 06:34:11;;;;;;;0.30;0.20;;;;;;;8.35;100.00;101352.47;5051289;28;20450;-51
2024/02/01 06:36:43;;;;;;;0.30;0.20;;;;;;;8.47;100.00;101357.75;5051458;28;20428;-50
2024/02/01 06:39:16;;;;;;;0.30;0.20;;;;;;;8.52;100.00;101357.75;5051140;28;20473;-51
2024/02/01 06:44:26;;;;;;;0.30;0.20;;;;;;;8.49;100.00;101368.31;5054560;28;20920;-51
2024/02/01 06:49:39;;;;;;;0.30;0.20;;;;;;;8.42;100.00;101372.78;5052989;28;20576;-50
2024/02/01 06:54:50;;;;;;;0.30;0.20;;;;;;;8.41;100.00;101378.09;5055222;28;20530;-51
2024/02/01 06:57:22;;;;;;;0.30;0.20;;;;;;;8.33;100.00;101373.63;5055233;28;20485;-50
2024/02/01 07:05:46;;;;;;;0.30;0.20;;;;;;;8.52;100.00;101395.72;5055058;28;20455;-50
2024/02/01 07:08:13;;;;;;;0.30;0.20;;;;;;;8.44;100.00;101393.97;5054786;28;20500;-50
2024/02/01 07:10:43;;;;;;;0.30;0.20;;;;;;;8.41;100.00;101394.84;5054614;28;20500;-50
2024/02/01 07:13:25;;;;;;;0.30;0.20;;;;;;;8.69;100.00;101397.44;5054735;28;21316;-51
2024/02/01 07:16:04;;;;;;;0.30;0.20;;;;;;;8.67;100.00;101404.53;5043835;28;20481;-51
2024/02/01 07:18:30;;;;;;;0.30;0.20;;;;;;;8.67;100.00;101413.34;5054810;28;20878;-51
2024/02/01 07:21:09;;;;;;;0.30;0.20;;;;;;;8.60;100.00;101415.13;5054646;28;20550;-51
2024/02/01 07:23:48;;;;;;;0.30;0.20;;;;;;;8.59;100.00;101418.66;5054633;28;20481;-50
2024/02/01 07:26:34;;;;;;;0.30;0.20;;;;;;;8.51;100.00;101419.59;5054562;28;20810;-51
2024/02/01 07:59:17;;;;;;;0.30;0.20;;;;;;;8.67;100.00;101461.06;5054457;28;20457;-49
2024/02/01 08:02:02;;;;;;;0.30;0.20;;;;;;;8.80;100.00;101465.44;5054512;28;20458;-50
2024/02/01 08:09:59;;;;;;;0.30;0.20;;;;;;;8.94;100.00;101483.09;5053668;28;20577;-49
2024/02/01 08:12:33;;;;;;;0.30;0.20;;;;;;;9.13;100.00;101483.03;5053748;28;20963;-49
2024/02/01 08:14:59;;;;;;;0.30;0.20;;;;;;;9.06;100.00;101480.41;5053551;28;20879;-49
2024/02/01 08:17:26;;;;;;;0.30;0.20;;;;;;;9.10;100.00;101485.69;5053969;28;20447;-49
2024/02/01 08:19:53;;;;;;;0.30;0.20;;;;;;;8.96;100.00;101484.84;5053619;28;20531;-49
2024/02/01 08:22:19;;;;;;;0.30;0.20;;;;;;;8.86;100.00;101480.44;5053764;28;20442;-49
2024/02/01 08:24:54;;;;;;;0.30;0.20;;;;;;;8.84;100.00;101491.06;5053399;28;20463;-49
2024/02/01 08:27:23;;;;;;;0.30;0.20;;;;;;;8.97;100.00;101489.25;5053454;28;20838;-49
2024/02/01 08:29:49;;;;;;;0.30;0.20;;;;;;;8.91;100.00;101491.94;5054493;28;20474;-52
2024/02/01 08:32:19;;;;;;;0.30;0.20;;;;;;;8.88;100.00;101494.59;5054910;28;20874;-50
2024/02/01 08:34:46;;;;;;;0.30;0.20;;;;;;;8.88;100.00;101495.47;5054206;28;20447;-50
2024/02/01 08:37:12;;;;;;;0.30;0.20;;;;;;;8.81;100.00;101496.38;5053277;28;20457;-50
2024/02/01 08:39:45;;;;;;;0.30;0.20;;;;;;;8.90;100.00;101490.16;5052599;28;20478;-50
2024/02/01 08:42:12;;;;;;;0.30;0.20;;;;;;;8.92;100.00;101493.72;5053113;28;20447;-50
2024/02/01 08:44:38;;;;;;;0.30;0.20;;;;;;;8.82;100.00;101498.13;5053280;28;20458;-50
2024/02/01 08:47:05;;;;;;;0.30;0.20;;;;;;;8.99;100.00;101492.78;5053211;28;20454;-50
2024/02/01 08:49:38;;;;;;;0.30;0.20;;;;;;;9.06;100.00;101489.25;5053338;28;20565;-50
2024/02/01 08:52:05;;;;;;;0.30;0.20;;;;;;;9.08;100.00;101492.78;5053440;28;20529;-50
2024/02/01 08:54:32;;;;;;;0.30;0.20;;;;;;;9.16;100.00;101496.25;5052766;28;20451;-51
2024/02/01 08:56:59;;;;;;;0.30;0.20;;;;;;;9.31;100.00;101502.41;5052820;28;20510;-50
2024/02/01 08:59:27;;;;;;;0.30;0.20;;;;;;;9.33;100.00;101508.63;5035086;28;20963;-50
2024/02/01 09:01:53;;;;;;;0.30;0.20;;;;;;;9.41;100.00;101504.13;5052862;28;20834;-51
2024/02/01 09:04:19;;;;;;;0.30;0.20;;;;;;;9.66;100.00;101502.25;5052821;28;20451;-50
2024/02/01 09:06:53;;;;;;;0.30;0.20;;;;;;;9.65;100.00;101509.34;5052525;28;20455;-49
2024/02/01 09:09:28;;;;;;;0.30;0.20;;;;;;;9.78;100.00;101513.69;5052583;28;20442;-50
2024/02/01 09:11:55;;;;;;;0.30;0.20;;;;;;;9.76;100.00;101519.91;5052827;28;20502;-51
2024/02/01 09:14:22;;;;;;;0.30;0.20;;;;;;;9.82;100.00;101518.97;5053002;28;20451;-50
2024/02/01 09:16:48;;;;;;;0.30;0.20;;;;;;;9.74;100.00;101525.22;5052533;28;20451;-50
2024/02/01 09:19:15;;;;;;;0.30;0.20;;;;;;;10.01;100.00;101516.22;5052575;28;20566;-50
2024/02/01 09:21:41;;;;;;;0.30;0.20;;;;;;;9.99;100.00;101517.09;5052328;28;20530;-51
2024/02/01 09:24:08;;;;;;;0.30;0.20;;;;;;;10.10;100.00;101517.91;5052680;28;20590;-50
2024/02/01 09:26:34;;;;;;;0.30;0.20;;;;;;;9.99;100.00;101522.41;5052220;28;21003;-50
2024/02/01 09:29:11;;;;;;;0.30;0.20;;;;;;;10.09;100.00;101514.38;5052262;28;20940;-50
2024/02/01 09:31:38;;;;;;;0.30;0.20;;;;;;;10.13;100.00;101517.88;5052237;28;20597;-50
2024/02/01 09:34:05;;;;;;;0.30;0.20;;;;;;;10.13;100.00;101523.19;5052257;28;20447;-50
2024/02/01 09:36:33;;;;;;;0.30;0.20;;;;;;;10.23;100.00;101519.63;5052264;28;20453;-50
2024/02/01 09:39:00;;;;;;;0.30;0.20;;;;;;;10.20;100.00;101526.72;5052149;28;20451;-50
2024/02/01 09:41:28;;;;;;;0.30;0.20;;;;;;;10.39;100.00;101533.69;5051773;28;20493;-50
2024/02/01 09:43:54;;;;;;;0.30;0.20;;;;;;;10.44;100.00;101526.56;5052210;28;20542;-50
2024/02/01 09:46:21;;;;;;;0.30;0.20;;;;;;;10.51;100.00;101543.34;5048488;28;20905;-50
2024/02/01 09:48:49;;;;;;;0.30;0.20;;;;;;;10.51;100.00;101532.69;5045292;28;20429;-51
2024/02/01 09:51:19;;;;;;;0.30;0.20;;;;;;;10.62;100.00;101539.69;5052071;28;20490;-49
2024/02/01 09:53:47;;;;;;;0.30;0.20;;;;;;;10.61;100.00;101553.88;5051647;28;20815;-50
2024/02/01 09:56:13;;;;;;;0.30;0.20;;;;;;;10.54;100.00;101560.13;5052113;28;20455;-50
2024/02/01 09:58:41;;;;;;;0.30;0.20;;;;;;;10.60;100.00;101564.53;5051789;28;20461;-50
2024/02/01 10:01:10;;;;;;;0.30;0.20;;;;;;;10.76;100.00;101562.63;5051663;28;20898;-50
2024/02/01 10:03:44;;;;;;;0.30;0.20;;;;;;;10.40;100.00;101559.34;5051542;28;20814;-50
2024/02/01 10:06:12;;;;;;;0.30;0.20;;;;;;;10.55;100.00;101564.59;5034207;28;20447;-50
2024/02/01 10:08:39;;;;;;;0.30;0.20;;;;;;;10.59;100.00;101568.09;5051351;28;20477;-51
2024/02/01 10:11:05;;;;;;;0.30;0.20;;;;;;;10.74;100.00;101562.66;5051666;28;20495;-50
2024/02/01 10:13:36;;;;;;;0.30;0.20;;;;;;;10.53;100.00;101574.31;5051426;28;21118;-50
2024/02/01 10:16:12;;;;;;;0.30;0.20;;;;;;;10.61;100.00;101571.63;5051505;28;20527;-50
2024/02/01 10:18:40;;;;;;;0.30;0.20;;;;;;;10.74;100.00;101567.97;5050933;28;20446;-50
2024/02/01 10:21:22;;;;;;;0.30;0.20;;;;;;;10.73;100.00;101570.63;5051444;28;21061;-50
2024/02/01 10:24:05;;;;;;;0.30;0.20;;;;;;;10.95;100.00;101567.75;5040987;28;20446;-50
2024/02/01 10:26:33;;;;;;;0.30;0.20;;;;;;;11.13;100.00;101572.03;5051233;28;20892;-50
2024/02/01 10:28:59;;;;;;;0.30;0.20;;;;;;;11.35;100.00;101562.00;5051415;28;20841;-49
2024/02/01 10:31:28;;;;;;;0.30;0.20;;;;;;;11.47;100.00;101563.66;5051386;28;20494;-49
2024/02/01 10:34:05;;;;;;;0.30;0.20;;;;;;;11.57;100.00;101568.88;5051367;28;20451;-48
2024/02/01 10:36:37;;;;;;;0.30;0.20;;;;;;;11.54;100.00;101563.59;5051039;28;20949;-50
2024/02/01 10:39:06;;;;;;;0.30;0.20;;;;;;;11.64;100.00;101566.13;5050982;28;20867;-50
2024/02/01 10:41:39;;;;;;;0.30;0.20;;;;;;;11.45;100.00;101563.69;5050995;28;20482;-49
2024/02/01 10:44:07;;;;;;;0.30;0.20;;;;;;;11.55;100.00;101554.69;5051358;28;20469;-49
2024/02/01 10:46:47;;;;;;;0.30;0.20;;;;;;;11.38;100.00;101558.47;5046027;28;20466;-50
2024/02/01 10:49:28;;;;;;;0.30;0.20;;;;;;;11.32;100.00;101556.72;5048170;28;20453;-49
2024/02/01 10:51:56;;;;;;;0.30;0.20;;;;;;;11.23;100.00;101554.16;5051372;28;20518;-49
2024/02/01 10:54:24;;;;;;;0.30;0.20;;;;;;;11.31;100.00;101554.09;5050982;28;20844;-49
2024/02/01 10:56:55;;;;;;;0.30;0.20;;;;;;;11.16;100.00;101555.16;5033758;28;20450;-50
2024/02/01 10:59:22;;;;;;;0.30;0.20;;;;;;;11.41;100.00;101563.75;5051209;28;20447;-48
2024/02/01 11:01:48;;;;;;;0.30;0.20;;;;;;;11.44;100.00;101561.91;5051251;28;20504;-49
2024/02/01 11:04:15;;;;;;;0.30;0.20;;;;;;;11.52;100.00;101560.06;5051254;28;20469;-50
2024/02/01 11:06:49;;;;;;;0.30;0.20;;;;;;;11.45;99.71;101560.13;5051219;28;20455;-49
2024/02/01 11:09:22;;;;;;;0.30;0.20;;;;;;;11.74;99.46;101560.66;5051036;28;20804;-49
2024/02/01 11:11:57;;;;;;;0.30;0.20;;;;;;;11.97;99.16;101560.41;5050901;28;20496;-48
2024/02/01 11:14:26;;;;;;;0.30;0.20;;;;;;;11.96;98.59;101560.41;5051005;28;20982;-49
2024/02/01 11:17:01;;;;;;;0.30;0.20;;;;;;;12.14;98.78;101565.47;5051120;28;20508;-49
2024/02/01 11:19:34;;;;;;;0.30;0.20;;;;;;;12.19;98.06;101560.94;5051102;28;20424;-48
2024/02/01 11:22:07;;;;;;;0.30;0.20;;;;;;;12.24;95.30;101563.56;5051243;28;20447;-48
2024/02/01 11:24:37;;;;;;;0.30;0.20;;;;;;;12.33;93.77;101566.06;5050702;28;20429;-50
2024/02/01 11:27:20;;;;;;;0.30;0.20;;;;;;;12.51;92.50;101568.47;5051383;28;20425;-49
2024/02/01 11:29:50;;;;;;;0.30;0.20;;;;;;;12.30;90.80;101566.13;5052980;28;20467;-50
2024/02/01 11:32:22;;;;;;;0.30;0.20;;;;;;;12.30;91.00;101569.69;5054451;28;20470;-49
2024/02/01 11:34:50;;;;;;;0.30;0.20;;;;;;;12.12;90.27;101572.63;5054422;28;20925;-49
2024/02/01 11:37:17;;;;;;;0.30;0.20;;;;;;;11.90;90.08;101569.34;5054328;28;20448;-49
2024/02/01 11:39:45;;;;;;;0.30;0.20;;;;;;;11.81;91.67;101586.38;5053786;28;20991;-49
2024/02/01 11:42:22;;;;;;;0.30;0.20;;;;;;;11.97;92.31;101594.16;5054309;28;21014;-49
2024/02/01 11:45:03;;;;;;;0.30;0.20;;;;;;;12.05;90.02;101590.47;5042742;28;20446;-50
2024/02/01 11:47:33;;;;;;;0.30;0.20;;;;;;;12.23;88.26;101578.69;5043330;28;20894;-49
2024/02/01 11:50:01;;;;;;;0.30;0.20;;;;;;;12.36;89.00;101576.72;5054309;28;20494;-50
2024/02/01 11:52:57;;;;;;;0.30;0.20;;;;;;;12.44;90.46;101578.34;5054124;28;20560;-50
2024/02/01 11:55:29;;;;;;;0.30;0.20;;;;;;;12.60;89.86;101570.97;5053969;28;20453;-50
2024/02/01 11:57:59;;;;;;;0.30;0.20;;;;;;;12.58;88.42;101558.56;5053956;28;20483;-50
2024/02/01 12:00:27;;;;;;;0.30;0.20;;;;;;;12.79;86.19;101560.00;5054021;28;20524;-50
2024/02/01 12:03:13;;;;;;;0.30;0.20;;;;;;;13.03;85.25;101556.91;5054141;28;20417;-49
2024/02/01 12:05:44;;;;;;;0.30;0.20;;;;;;;12.82;86.63;101555.50;5053881;28;20421;-49
2024/02/01 12:08:10;;;;;;;0.30;0.20;;;;;;;12.78;86.37;101564.47;5053838;28;20443;-48
2024/02/01 12:10:37;;;;;;;0.30;0.20;;;;;;;12.50;86.25;101568.50;5053318;28;20444;-49
2024/02/01 12:13:05;;;;;;;0.30;0.20;;;;;;;12.20;85.96;101581.41;5053929;28;20494;-48
2024/02/01 12:15:36;;;;;;;0.30;0.20;;;;;;;11.98;87.67;101579.94;5053476;28;20900;-48
2024/02/01 12:18:08;;;;;;;0.30;0.20;;;;;;;11.98;86.72;101569.28;5053671;28;20466;-48
2024/02/01 12:20:35;;;;;;;0.30;0.20;;;;;;;11.97;87.00;101579.03;5053501;28;20498;-49
2024/02/01 12:23:02;;;;;;;0.30;0.20;;;;;;;11.76;87.27;101584.59;5053818;28;20533;-50
2024/02/01 12:25:32;;;;;;;0.30;0.20;;;;;;;11.69;87.53;101582.94;5053590;28;20457;-49